Time;durP1;ratioP1;P1;durP2;ratioP2;P2;SDS_P1;SDS_P2;PMS_P1;PMS_P2;Temp;Humidity;BMP_temperature;BMP_pressure;BME280_temperature;BME280_humidity;BME280_pressure;Samples;Min_cycle;Max_cycle;Signal;HPM_P1;HPM_P2
2023/08/05 00:00:42;;;;;;;10.20;5.90;;;;;;;;;;107143;1251;62159;-80
2023/08/05 00:03:25;;;;;;;11.30;5.70;;;;;;;;;;107107;1250;62157;-80
2023/08/05 00:05:51;;;;;;;9.00;5.50;;;;;;;;;;107168;1254;62119;-80
2023/08/05 00:08:18;;;;;;;9.70;5.80;;;;;;;;;;107300;1254;59969;-80
2023/08/05 00:10:44;;;;;;;11.20;5.80;;;;;;;;;;107233;1254;62053;-80
2023/08/05 00:13:11;;;;;;;10.60;7.40;;;;;;;;;;107190;1252;62076;-80
2023/08/05 00:15:37;;;;;;;10.30;6.70;;;;;;;;;;107177;1253;61905;-80
2023/08/05 00:18:04;;;;;;;11.30;6.40;;;;;;;;;;107167;1250;62022;-80
2023/08/05 00:20:30;;;;;;;9.70;6.50;;;;;;;;;;107144;1251;62155;-80
2023/08/05 00:22:56;;;;;;;9.30;5.40;;;;;;;;;;107232;1253;62037;-80
2023/08/05 00:25:23;;;;;;;7.40;5.70;;;;;;;;;;107223;1251;62136;-80
2023/08/05 00:27:49;;;;;;;9.00;5.10;;;;;;;;;;107156;1250;62012;-80
2023/08/05 00:30:15;;;;;;;10.20;5.20;;;;;;;;;;107173;1251;62129;-80
2023/08/05 00:32:42;;;;;;;10.70;6.10;;;;;;;;;;107184;1250;62588;-80
2023/08/05 00:35:09;;;;;;;11.00;6.00;;;;;;;;;;107194;1251;62140;-80
2023/08/05 00:37:36;;;;;;;9.60;5.40;;;;;;;;;;107143;1254;62220;-80
2023/08/05 00:40:04;;;;;;;9.30;6.40;;;;;;;;;;107131;1253;62141;-81
2023/08/05 00:42:30;;;;;;;6.60;5.60;;;;;;;;;;107435;1253;62148;-80
2023/08/05 00:44:57;;;;;;;11.70;5.70;;;;;;;;;;107210;1251;61905;-81
2023/08/05 00:47:23;;;;;;;12.80;5.20;;;;;;;;;;107207;1251;62139;-80
2023/08/05 00:49:50;;;;;;;8.60;5.20;;;;;;;;;;107210;1250;62035;-80
2023/08/05 00:52:16;;;;;;;7.20;4.80;;;;;;;;;;108512;1251;59946;-81
2023/08/05 00:54:42;;;;;;;7.40;4.60;;;;;;;;;;109182;1250;62057;-81
2023/08/05 00:57:09;;;;;;;7.60;4.80;;;;;;;;;;108379;1250;62069;-81
2023/08/05 00:59:35;;;;;;;7.60;4.40;;;;;;;;;;109875;1249;59838;-81
2023/08/05 01:02:02;;;;;;;7.40;4.90;;;;;;;;;;109272;1253;59858;-81
2023/08/05 01:04:28;;;;;;;15.90;9.70;;;;;;;;;;107167;1251;62114;-81
2023/08/05 01:06:54;;;;;;;15.20;7.90;;;;;;;;;;107137;1253;62144;-80
2023/08/05 01:09:21;;;;;;;10.90;6.70;;;;;;;;;;109142;1250;62004;-81
2023/08/05 01:11:47;;;;;;;10.90;6.30;;;;;;;;;;108154;1249;60566;-81
2023/08/05 01:14:14;;;;;;;12.70;5.50;;;;;;;;;;107411;1250;62026;-81
2023/08/05 01:16:41;;;;;;;7.70;5.20;;;;;;;;;;108394;1251;62146;-81
2023/08/05 01:19:09;;;;;;;8.40;5.20;;;;;;;;;;107170;1254;62174;-80
2023/08/05 01:21:38;;;;;;;12.10;5.30;;;;;;;;;;107197;1250;62002;-81
2023/08/05 01:24:08;;;;;;;14.70;6.00;;;;;;;;;;107150;1251;61945;-80
2023/08/05 01:26:34;;;;;;;15.40;6.70;;;;;;;;;;107136;1250;62069;-80
2023/08/05 01:29:01;;;;;;;10.40;5.60;;;;;;;;;;107198;1250;61871;-80
2023/08/05 01:31:27;;;;;;;8.40;5.00;;;;;;;;;;107108;1251;60726;-81
2023/08/05 01:33:54;;;;;;;9.60;5.10;;;;;;;;;;107150;1249;62149;-81
2023/08/05 01:36:20;;;;;;;7.50;4.60;;;;;;;;;;107129;1251;62158;-80
2023/08/05 01:38:50;;;;;;;10.70;6.10;;;;;;;;;;107133;1251;62093;-80
2023/08/05 01:41:16;;;;;;;10.30;5.20;;;;;;;;;;107144;1250;62103;-80
2023/08/05 01:43:42;;;;;;;10.20;5.30;;;;;;;;;;107198;1250;62072;-80
2023/08/05 01:46:09;;;;;;;8.70;5.80;;;;;;;;;;107166;1251;61939;-80
2023/08/05 01:48:36;;;;;;;12.00;6.10;;;;;;;;;;107131;1251;61926;-80
2023/08/05 01:51:02;;;;;;;12.40;5.80;;;;;;;;;;107127;1251;62083;-80
2023/08/05 01:53:28;;;;;;;7.60;5.50;;;;;;;;;;107114;1250;63092;-80
2023/08/05 01:55:55;;;;;;;10.60;5.70;;;;;;;;;;107141;1251;62236;-80
2023/08/05 01:58:21;;;;;;;12.00;6.50;;;;;;;;;;107131;1251;62279;-80
2023/08/05 02:00:50;;;;;;;11.30;6.20;;;;;;;;;;107111;1250;62137;-80
2023/08/05 02:03:17;;;;;;;10.00;5.90;;;;;;;;;;107101;1253;60738;-80
2023/08/05 02:05:43;;;;;;;9.70;7.10;;;;;;;;;;107182;1250;62037;-80
2023/08/05 02:08:09;;;;;;;9.60;6.60;;;;;;;;;;107114;1253;63234;-80
2023/08/05 02:10:37;;;;;;;10.10;6.50;;;;;;;;;;107165;1253;62083;-80
2023/08/05 02:13:04;;;;;;;11.50;6.10;;;;;;;;;;107153;1251;62118;-81
2023/08/05 02:15:30;;;;;;;8.80;5.70;;;;;;;;;;107162;1254;61970;-81
2023/08/05 02:17:57;;;;;;;10.80;6.90;;;;;;;;;;107195;1251;62035;-80
2023/08/05 02:20:23;;;;;;;7.30;5.50;;;;;;;;;;107224;1251;61920;-81
2023/08/05 02:22:50;;;;;;;10.80;5.60;;;;;;;;;;107170;1253;62022;-81
2023/08/05 02:25:16;;;;;;;11.00;6.20;;;;;;;;;;107226;1250;61949;-81
2023/08/05 02:27:42;;;;;;;9.90;6.10;;;;;;;;;;107206;1251;62036;-81
2023/08/05 02:30:09;;;;;;;13.10;7.10;;;;;;;;;;107238;1249;62764;-81
2023/08/05 02:32:35;;;;;;;11.00;6.30;;;;;;;;;;107196;1251;62069;-81
2023/08/05 02:35:02;;;;;;;8.80;5.70;;;;;;;;;;107193;1250;62235;-81
2023/08/05 02:37:29;;;;;;;11.50;6.00;;;;;;;;;;107203;1251;61736;-81
2023/08/05 02:39:55;;;;;;;11.60;5.90;;;;;;;;;;107232;1254;62054;-81
2023/08/05 02:42:21;;;;;;;12.50;7.20;;;;;;;;;;107152;1251;62091;-81
2023/08/05 02:44:49;;;;;;;11.60;6.40;;;;;;;;;;107245;1254;62125;-81
2023/08/05 02:47:15;;;;;;;11.80;6.60;;;;;;;;;;107236;1251;61949;-81
2023/08/05 02:49:42;;;;;;;12.40;6.40;;;;;;;;;;107161;1249;62118;-81
2023/08/05 02:52:08;;;;;;;13.30;7.90;;;;;;;;;;107293;1250;60086;-81
2023/08/05 02:54:35;;;;;;;12.80;7.50;;;;;;;;;;107191;1250;62024;-81
2023/08/05 02:57:01;;;;;;;18.80;7.70;;;;;;;;;;107176;1250;62126;-81
2023/08/05 02:59:27;;;;;;;13.00;6.90;;;;;;;;;;107156;1253;62150;-81
2023/08/05 03:01:54;;;;;;;16.90;7.10;;;;;;;;;;107214;1250;62073;-81
2023/08/05 03:04:20;;;;;;;12.60;7.90;;;;;;;;;;107185;1253;62136;-81
2023/08/05 03:06:46;;;;;;;13.60;8.20;;;;;;;;;;107205;1251;62677;-80
2023/08/05 03:09:13;;;;;;;20.30;8.70;;;;;;;;;;107324;1250;62245;-81
2023/08/05 03:11:40;;;;;;;16.90;8.20;;;;;;;;;;107199;1250;62179;-81
2023/08/05 03:14:06;;;;;;;16.70;8.70;;;;;;;;;;107208;1250;62059;-81
2023/08/05 03:16:33;;;;;;;12.10;8.60;;;;;;;;;;107220;1252;62093;-81
2023/08/05 03:18:59;;;;;;;16.40;8.10;;;;;;;;;;107129;1250;62118;-81
2023/08/05 03:21:26;;;;;;;13.60;6.70;;;;;;;;;;107183;1253;62161;-81
2023/08/05 03:23:52;;;;;;;13.20;7.70;;;;;;;;;;107216;1250;62153;-81
2023/08/05 03:26:18;;;;;;;8.70;6.30;;;;;;;;;;107174;1250;62072;-81
2023/08/05 03:28:45;;;;;;;13.50;9.50;;;;;;;;;;107217;1250;62141;-81
2023/08/05 03:31:11;;;;;;;10.50;7.60;;;;;;;;;;107140;1249;63141;-81
2023/08/05 03:33:37;;;;;;;18.70;12.70;;;;;;;;;;107184;1249;62067;-80
2023/08/05 03:36:04;;;;;;;15.90;11.10;;;;;;;;;;107196;1249;62144;-81
2023/08/05 03:38:30;;;;;;;9.60;6.60;;;;;;;;;;107193;1249;62064;-81
2023/08/05 03:40:59;;;;;;;15.20;8.50;;;;;;;;;;107151;1253;62056;-80
2023/08/05 03:43:26;;;;;;;13.90;8.30;;;;;;;;;;107158;1249;62148;-81
2023/08/05 03:45:52;;;;;;;13.10;8.00;;;;;;;;;;107091;1250;62068;-81
2023/08/05 03:48:19;;;;;;;14.20;10.40;;;;;;;;;;107241;1250;61990;-81
2023/08/05 03:50:45;;;;;;;14.00;10.00;;;;;;;;;;107176;1249;62077;-81
2023/08/05 03:53:12;;;;;;;12.60;8.40;;;;;;;;;;107131;1253;62044;-81
2023/08/05 03:55:38;;;;;;;12.40;6.40;;;;;;;;;;107202;1253;62149;-81
2023/08/05 03:58:04;;;;;;;15.40;10.50;;;;;;;;;;108149;1250;63016;-81
2023/08/05 04:00:31;;;;;;;11.70;7.50;;;;;;;;;;109758;1249;59675;-81
2023/08/05 04:02:57;;;;;;;6.80;5.50;;;;;;;;;;107226;1250;62282;-81
2023/08/05 04:05:23;;;;;;;9.00;7.00;;;;;;;;;;107176;1250;62202;-81
2023/08/05 04:07:50;;;;;;;7.20;5.70;;;;;;;;;;109124;1250;62057;-81
2023/08/05 04:10:21;;;;;;;15.20;7.70;;;;;;;;;;109889;1249;59700;-81
2023/08/05 04:12:47;;;;;;;12.40;6.90;;;;;;;;;;109915;1249;59617;-81
2023/08/05 04:15:14;;;;;;;10.90;6.70;;;;;;;;;;109912;1250;60812;-81
2023/08/05 04:17:42;;;;;;;8.20;5.90;;;;;;;;;;108452;1250;62023;-81
2023/08/05 04:20:08;;;;;;;10.20;7.30;;;;;;;;;;107207;1249;62156;-81
2023/08/05 04:22:36;;;;;;;9.90;6.00;;;;;;;;;;107166;1252;63166;-81
2023/08/05 04:25:03;;;;;;;8.40;5.40;;;;;;;;;;107158;1250;62048;-81
2023/08/05 04:27:29;;;;;;;12.80;7.90;;;;;;;;;;107224;1250;63008;-81
2023/08/05 04:29:57;;;;;;;10.10;6.70;;;;;;;;;;107159;1249;62064;-81
2023/08/05 04:32:24;;;;;;;24.70;18.10;;;;;;;;;;107141;1250;62248;-80
2023/08/05 04:34:50;;;;;;;8.30;7.00;;;;;;;;;;107195;1249;62168;-81
2023/08/05 04:37:20;;;;;;;9.60;6.30;;;;;;;;;;107293;1250;62141;-81
2023/08/05 04:39:47;;;;;;;13.40;8.60;;;;;;;;;;107188;1253;62032;-80
2023/08/05 04:42:13;;;;;;;11.80;7.60;;;;;;;;;;107205;1253;62065;-81
2023/08/05 04:44:42;;;;;;;12.70;6.50;;;;;;;;;;107125;1249;62030;-80
2023/08/05 04:47:09;;;;;;;15.80;10.40;;;;;;;;;;107196;1250;62063;-81
2023/08/05 04:49:36;;;;;;;9.20;6.30;;;;;;;;;;107171;1250;62410;-80
2023/08/05 04:52:06;;;;;;;8.90;6.30;;;;;;;;;;107203;1250;62038;-81
2023/08/05 04:54:39;;;;;;;10.60;6.40;;;;;;;;;;107159;1249;62023;-81
2023/08/05 04:57:06;;;;;;;9.00;5.80;;;;;;;;;;107173;1249;62133;-81
2023/08/05 04:59:32;;;;;;;10.80;5.30;;;;;;;;;;107162;1250;62082;-81
2023/08/05 05:01:58;;;;;;;9.90;6.50;;;;;;;;;;107263;1251;62149;-81
2023/08/05 05:04:25;;;;;;;14.20;11.10;;;;;;;;;;107216;1253;62140;-80
2023/08/05 05:06:51;;;;;;;11.00;8.30;;;;;;;;;;107153;1257;63169;-80
2023/08/05 05:09:18;;;;;;;7.50;5.10;;;;;;;;;;107077;1253;62032;-80
2023/08/05 05:11:44;;;;;;;5.80;4.20;;;;;;;;;;107066;1251;62120;-80
2023/08/05 05:14:10;;;;;;;7.80;4.10;;;;;;;;;;107103;1251;62193;-80
2023/08/05 05:16:37;;;;;;;6.30;3.90;;;;;;;;;;107105;1251;62141;-80
2023/08/05 05:19:03;;;;;;;5.00;3.50;;;;;;;;;;107119;1251;62115;-80
2023/08/05 05:21:30;;;;;;;5.20;3.60;;;;;;;;;;107052;1251;62055;-81
2023/08/05 05:23:56;;;;;;;7.80;3.50;;;;;;;;;;107110;1254;62189;-80
2023/08/05 05:26:22;;;;;;;8.90;4.30;;;;;;;;;;107072;1254;62072;-80
2023/08/05 05:28:49;;;;;;;5.50;4.90;;;;;;;;;;107089;1252;61952;-80
2023/08/05 05:31:15;;;;;;;5.50;4.30;;;;;;;;;;107101;1251;62589;-80
2023/08/05 05:33:47;;;;;;;5.70;3.10;;;;;;;;;;107020;1251;61934;-80
2023/08/05 05:36:13;;;;;;;4.70;3.50;;;;;;;;;;107102;1251;61926;-80
2023/08/05 05:38:39;;;;;;;6.80;4.10;;;;;;;;;;107112;1251;62047;-80
2023/08/05 05:41:06;;;;;;;7.90;4.20;;;;;;;;;;107087;1251;62099;-80
2023/08/05 05:43:35;;;;;;;8.40;5.00;;;;;;;;;;107092;1251;62071;-80
2023/08/05 05:46:01;;;;;;;;;;;;;;;;;;107127;1251;62043;-81
2023/08/05 05:48:28;;;;;;;4.10;3.00;;;;;;;;;;107122;1251;62041;-80
2023/08/05 05:50:54;;;;;;;5.30;3.80;;;;;;;;;;107063;1254;61961;-80
2023/08/05 05:53:21;;;;;;;4.80;3.20;;;;;;;;;;107125;1251;62198;-80
2023/08/05 05:55:53;;;;;;;5.30;4.00;;;;;;;;;;107130;1251;63079;-80
2023/08/05 05:58:19;;;;;;;7.30;5.00;;;;;;;;;;107097;1251;62137;-80
2023/08/05 06:00:46;;;;;;;5.30;3.10;;;;;;;;;;107052;1251;62169;-80
2023/08/05 06:03:12;;;;;;;3.50;2.80;;;;;;;;;;107157;1249;62080;-80
2023/08/05 06:05:39;;;;;;;4.20;3.20;;;;;;;;;;107150;1250;62062;-80
2023/08/05 06:08:06;;;;;;;3.80;2.50;;;;;;;;;;107153;1253;62064;-80
2023/08/05 06:10:35;;;;;;;4.70;2.70;;;;;;;;;;107105;1250;62059;-80
2023/08/05 06:13:03;;;;;;;3.80;2.70;;;;;;;;;;107154;1250;62076;-80
2023/08/05 06:15:30;;;;;;;7.70;3.90;;;;;;;;;;107153;1253;61902;-80
2023/08/05 06:17:57;;;;;;;4.20;3.20;;;;;;;;;;107208;1250;62027;-80
2023/08/05 06:20:23;;;;;;;4.00;3.10;;;;;;;;;;107156;1253;62120;-80
2023/08/05 06:22:49;;;;;;;5.00;3.60;;;;;;;;;;107192;1253;62029;-80
2023/08/05 06:25:16;;;;;;;5.80;4.10;;;;;;;;;;107103;1250;62035;-80
2023/08/05 06:27:42;;;;;;;3.90;3.20;;;;;;;;;;107171;1250;62136;-80
2023/08/05 06:30:09;;;;;;;4.20;3.50;;;;;;;;;;107192;1250;62170;-80
2023/08/05 06:32:35;;;;;;;6.80;3.50;;;;;;;;;;107136;1250;62131;-80
2023/08/05 06:35:02;;;;;;;3.50;2.90;;;;;;;;;;107153;1249;62067;-80
2023/08/05 06:37:28;;;;;;;4.00;3.00;;;;;;;;;;107174;1254;62139;-80
2023/08/05 06:39:54;;;;;;;5.10;2.80;;;;;;;;;;107098;1253;62914;-80
2023/08/05 06:42:23;;;;;;;7.60;4.00;;;;;;;;;;107116;1250;62155;-80
2023/08/05 06:44:50;;;;;;;5.60;4.20;;;;;;;;;;107083;1249;62763;-80
2023/08/05 06:47:16;;;;;;;5.60;3.80;;;;;;;;;;107176;1250;62019;-80
2023/08/05 06:49:43;;;;;;;7.90;4.30;;;;;;;;;;107082;1250;62059;-80
2023/08/05 06:52:09;;;;;;;7.30;5.20;;;;;;;;;;107140;1249;60122;-80
2023/08/05 06:54:35;;;;;;;7.30;4.90;;;;;;;;;;107137;1250;62139;-80
2023/08/05 06:57:02;;;;;;;10.70;6.40;;;;;;;;;;107078;1251;62661;-80
2023/08/05 06:59:28;;;;;;;17.60;12.10;;;;;;;;;;107200;1250;62096;-80
2023/08/05 07:01:54;;;;;;;10.10;7.50;;;;;;;;;;107186;1251;62138;-80
2023/08/05 07:04:21;;;;;;;10.30;6.30;;;;;;;;;;107223;1249;61383;-81
2023/08/05 07:06:47;;;;;;;8.30;5.80;;;;;;;;;;107315;1249;62141;-81
2023/08/05 07:09:14;;;;;;;6.40;4.90;;;;;;;;;;107010;1249;160595;-81
2023/08/05 07:11:40;;;;;;;7.40;6.60;;;;;;;;;;107094;1251;62591;-80
2023/08/05 07:14:06;;;;;;;8.70;6.90;;;;;;;;;;107133;1250;62131;-80
2023/08/05 07:16:33;;;;;;;6.80;5.60;;;;;;;;;;107121;1254;62166;-80
2023/08/05 07:18:59;;;;;;;7.90;6.80;;;;;;;;;;107257;1249;62153;-80
2023/08/05 07:21:26;;;;;;;7.00;6.30;;;;;;;;;;107172;1249;62140;-80
2023/08/05 07:23:52;;;;;;;9.80;7.60;;;;;;;;;;107163;1253;62149;-80
2023/08/05 07:26:18;;;;;;;9.90;6.70;;;;;;;;;;107264;1250;62163;-80
2023/08/05 07:28:45;;;;;;;8.60;6.10;;;;;;;;;;107152;1250;62041;-81
2023/08/05 07:31:11;;;;;;;6.40;5.70;;;;;;;;;;107215;1253;62031;-80
2023/08/05 07:33:38;;;;;;;7.50;6.40;;;;;;;;;;107157;1249;62124;-80
2023/08/05 07:36:10;;;;;;;7.90;6.50;;;;;;;;;;107086;1250;62157;-80
2023/08/05 07:38:39;;;;;;;14.40;12.50;;;;;;;;;;107268;1250;62134;-80
2023/08/05 07:41:06;;;;;;;7.00;5.50;;;;;;;;;;107096;1253;60460;-80
2023/08/05 07:43:35;;;;;;;8.40;5.70;;;;;;;;;;107178;1254;62060;-80
2023/08/05 07:46:02;;;;;;;5.70;4.40;;;;;;;;;;107300;1253;61916;-80
2023/08/05 07:48:35;;;;;;;7.90;5.60;;;;;;;;;;107534;1253;61940;-80
2023/08/05 07:51:02;;;;;;;6.00;4.90;;;;;;;;;;107650;1250;61933;-80
2023/08/05 07:53:30;;;;;;;5.50;4.70;;;;;;;;;;107898;1250;61603;-80
2023/08/05 07:56:00;;;;;;;6.50;4.90;;;;;;;;;;107615;1249;61571;-80
2023/08/05 07:58:27;;;;;;;7.50;5.00;;;;;;;;;;107408;1249;62140;-80
2023/08/05 08:00:57;;;;;;;5.60;4.90;;;;;;;;;;107114;1249;62192;-80
2023/08/05 08:03:26;;;;;;;7.00;4.50;;;;;;;;;;107133;1249;62192;-80
2023/08/05 08:05:53;;;;;;;6.70;4.90;;;;;;;;;;107168;1250;62009;-80
2023/08/05 08:08:19;;;;;;;6.90;5.80;;;;;;;;;;107122;1254;62039;-80
2023/08/05 08:10:46;;;;;;;7.90;5.90;;;;;;;;;;107113;1250;63047;-80
2023/08/05 08:13:12;;;;;;;8.80;6.80;;;;;;;;;;107218;1249;62064;-80
2023/08/05 08:15:38;;;;;;;9.90;6.80;;;;;;;;;;107117;1250;62230;-79
2023/08/05 08:18:05;;;;;;;5.70;4.90;;;;;;;;;;107157;1249;62047;-80
2023/08/05 08:20:31;;;;;;;5.90;5.30;;;;;;;;;;107133;1251;61949;-80
2023/08/05 08:22:58;;;;;;;7.10;4.80;;;;;;;;;;107189;1250;60277;-80
2023/08/05 08:25:25;;;;;;;7.60;4.80;;;;;;;;;;107119;1253;62494;-81
2023/08/05 08:27:51;;;;;;;5.90;4.50;;;;;;;;;;107127;1253;61127;-80
2023/08/05 08:30:17;;;;;;;5.80;4.30;;;;;;;;;;107088;1254;62143;-79
2023/08/05 08:32:44;;;;;;;5.60;4.70;;;;;;;;;;107120;1251;62208;-80
2023/08/05 08:35:10;;;;;;;5.50;4.70;;;;;;;;;;107134;1251;62145;-80
2023/08/05 08:37:37;;;;;;;8.20;5.40;;;;;;;;;;107154;1250;62157;-80
2023/08/05 08:40:04;;;;;;;5.00;4.50;;;;;;;;;;107062;1249;62092;-80
2023/08/05 08:42:30;;;;;;;7.30;5.30;;;;;;;;;;107130;1254;62032;-80
2023/08/05 08:44:57;;;;;;;7.90;4.80;;;;;;;;;;107211;1249;62068;-81
2023/08/05 08:47:24;;;;;;;6.30;4.90;;;;;;;;;;107164;1249;62119;-80
2023/08/05 08:49:51;;;;;;;4.90;4.40;;;;;;;;;;107154;1249;62432;-80
2023/08/05 08:52:20;;;;;;;6.30;4.60;;;;;;;;;;107111;1249;62804;-80
2023/08/05 08:54:47;;;;;;;6.30;5.20;;;;;;;;;;107076;1250;62008;-80
2023/08/05 08:57:15;;;;;;;6.10;4.80;;;;;;;;;;107184;1251;62064;-80
2023/08/05 08:59:42;;;;;;;4.70;4.30;;;;;;;;;;107060;1249;62167;-81
2023/08/05 09:02:12;;;;;;;6.90;4.60;;;;;;;;;;107062;1250;62067;-80
2023/08/05 09:04:42;;;;;;;7.70;4.90;;;;;;;;;;107262;1254;62165;-80
2023/08/05 09:07:08;;;;;;;5.60;5.00;;;;;;;;;;107258;1250;62050;-81
2023/08/05 09:09:35;;;;;;;6.50;5.50;;;;;;;;;;107146;1250;62232;-80
2023/08/05 09:12:02;;;;;;;5.10;4.60;;;;;;;;;;107164;1249;63186;-80
2023/08/05 09:14:28;;;;;;;7.50;5.00;;;;;;;;;;107052;1250;62025;-80
2023/08/05 09:17:00;;;;;;;5.50;5.00;;;;;;;;;;107124;1250;62028;-80
2023/08/05 09:19:27;;;;;;;6.70;4.50;;;;;;;;;;107155;1249;62023;-80
2023/08/05 09:21:54;;;;;;;6.70;4.60;;;;;;;;;;107187;1249;62026;-80
2023/08/05 09:24:21;;;;;;;5.30;4.80;;;;;;;;;;107263;1250;62116;-80
2023/08/05 09:26:47;;;;;;;6.90;4.80;;;;;;;;;;107234;1250;62138;-80
2023/08/05 09:29:19;;;;;;;5.30;4.40;;;;;;;;;;107139;1249;62200;-80
2023/08/05 09:31:53;;;;;;;6.30;4.70;;;;;;;;;;107164;1250;60586;-80
2023/08/05 09:34:20;;;;;;;7.50;5.90;;;;;;;;;;107186;1254;60754;-80
2023/08/05 09:36:46;;;;;;;5.40;4.40;;;;;;;;;;107163;1249;61962;-80
2023/08/05 09:39:13;;;;;;;6.00;5.00;;;;;;;;;;107102;1254;62210;-80
2023/08/05 09:41:39;;;;;;;5.90;5.30;;;;;;;;;;107072;1249;62490;-80
2023/08/05 09:44:08;;;;;;;6.10;5.00;;;;;;;;;;107090;1250;62169;-80
2023/08/05 09:46:39;;;;;;;6.10;5.20;;;;;;;;;;107131;1253;61958;-80
2023/08/05 09:49:06;;;;;;;5.60;5.10;;;;;;;;;;107755;1249;62007;-80
2023/08/05 09:51:32;;;;;;;6.20;4.50;;;;;;;;;;107057;1250;62829;-80
2023/08/05 09:53:59;;;;;;;6.40;4.80;;;;;;;;;;107110;1253;62178;-80
2023/08/05 09:56:26;;;;;;;4.90;4.30;;;;;;;;;;107115;1249;62028;-81
2023/08/05 09:58:52;;;;;;;6.00;4.90;;;;;;;;;;107363;1249;62156;-80
2023/08/05 10:01:19;;;;;;;4.70;4.10;;;;;;;;;;107246;1249;62031;-80
2023/08/05 10:03:45;;;;;;;4.90;4.20;;;;;;;;;;107197;1250;62134;-80
2023/08/05 10:06:12;;;;;;;5.30;4.10;;;;;;;;;;107110;1249;62067;-80
2023/08/05 10:08:40;;;;;;;5.70;4.10;;;;;;;;;;107220;1250;62110;-81
2023/08/05 10:11:06;;;;;;;7.90;5.70;;;;;;;;;;107221;1250;62051;-80
2023/08/05 10:13:37;;;;;;;6.90;4.80;;;;;;;;;;107122;1249;62153;-81
2023/08/05 10:16:03;;;;;;;8.20;4.80;;;;;;;;;;107178;1251;62117;-81
2023/08/05 10:18:29;;;;;;;4.60;4.10;;;;;;;;;;107149;1253;62143;-80
2023/08/05 10:20:56;;;;;;;5.20;4.10;;;;;;;;;;107129;1249;62141;-80
2023/08/05 10:23:25;;;;;;;5.30;4.60;;;;;;;;;;107173;1249;62204;-80
2023/08/05 10:25:58;;;;;;;4.60;4.20;;;;;;;;;;107154;1250;62165;-80
2023/08/05 10:28:24;;;;;;;5.00;4.20;;;;;;;;;;107204;1249;62056;-80
2023/08/05 10:30:51;;;;;;;6.00;4.60;;;;;;;;;;107181;1250;62144;-81
2023/08/05 10:33:17;;;;;;;5.60;5.00;;;;;;;;;;107189;1253;62025;-81
2023/08/05 10:35:44;;;;;;;4.70;4.20;;;;;;;;;;107238;1253;61955;-80
2023/08/05 10:38:15;;;;;;;10.50;6.00;;;;;;;;;;107206;1249;61891;-81
2023/08/05 10:40:52;;;;;;;7.30;5.80;;;;;;;;;;107565;1252;62069;-81
2023/08/05 10:43:28;;;;;;;5.00;4.10;;;;;;;;;;107219;1253;62116;-81
2023/08/05 10:45:54;;;;;;;4.60;4.10;;;;;;;;;;107242;1249;62141;-80
2023/08/05 10:48:21;;;;;;;6.30;4.70;;;;;;;;;;107229;1250;62144;-81
2023/08/05 10:50:48;;;;;;;5.00;4.00;;;;;;;;;;107195;1249;62080;-81
2023/08/05 10:53:14;;;;;;;3.80;3.10;;;;;;;;;;107310;1250;62127;-81
2023/08/05 10:55:45;;;;;;;4.40;4.00;;;;;;;;;;107456;1253;61948;-80
2023/08/05 10:58:11;;;;;;;11.40;10.10;;;;;;;;;;107420;1249;62840;-81
2023/08/05 11:00:39;;;;;;;8.90;8.00;;;;;;;;;;107272;1253;61956;-81
2023/08/05 11:03:23;;;;;;;5.40;4.50;;;;;;;;;;107232;1253;62038;-81
2023/08/05 11:05:50;;;;;;;5.50;4.40;;;;;;;;;;107348;1254;62141;-80
2023/08/05 11:08:19;;;;;;;4.50;4.10;;;;;;;;;;107203;1250;61954;-80
2023/08/05 11:10:46;;;;;;;6.10;3.60;;;;;;;;;;107286;1249;61978;-81
2023/08/05 11:13:13;;;;;;;5.50;4.00;;;;;;;;;;107394;1249;62092;-81
2023/08/05 11:15:40;;;;;;;5.30;4.30;;;;;;;;;;107255;1250;61906;-80
2023/08/05 11:18:06;;;;;;;5.10;4.30;;;;;;;;;;107711;1253;62136;-80
2023/08/05 11:20:33;;;;;;;4.70;4.20;;;;;;;;;;107165;1249;62151;-81
2023/08/05 11:23:00;;;;;;;7.50;4.60;;;;;;;;;;107094;1250;62161;-80
2023/08/05 11:25:26;;;;;;;9.30;8.20;;;;;;;;;;107334;1253;62017;-81
2023/08/05 11:27:53;;;;;;;11.10;6.20;;;;;;;;;;107133;1255;63986;-81
2023/08/05 11:30:20;;;;;;;5.60;5.00;;;;;;;;;;107166;1249;62166;-80
2023/08/05 11:32:52;;;;;;;9.00;5.20;;;;;;;;;;107120;1251;61871;-81
2023/08/05 11:35:19;;;;;;;8.30;7.00;;;;;;;;;;107140;1253;62006;-80
2023/08/05 11:37:45;;;;;;;8.20;6.40;;;;;;;;;;107152;1249;61998;-82
2023/08/05 11:40:11;;;;;;;9.50;5.60;;;;;;;;;;107087;1250;62007;-80
2023/08/05 11:42:39;;;;;;;8.70;5.50;;;;;;;;;;107165;1249;62144;-81
2023/08/05 11:45:13;;;;;;;8.30;5.50;;;;;;;;;;107337;1249;61966;-81
2023/08/05 11:47:39;;;;;;;6.90;5.90;;;;;;;;;;107424;1251;61965;-81
2023/08/05 11:50:06;;;;;;;8.00;5.60;;;;;;;;;;107104;1255;62043;-81
2023/08/05 11:52:32;;;;;;;8.20;5.40;;;;;;;;;;107121;1253;62158;-81
2023/08/05 11:54:59;;;;;;;11.10;7.90;;;;;;;;;;107195;1250;62130;-80
2023/08/05 11:57:26;;;;;;;12.00;9.50;;;;;;;;;;106878;1253;62038;-80
2023/08/05 11:59:55;;;;;;;7.60;5.30;;;;;;;;;;106840;1250;60595;-80
2023/08/05 12:02:22;;;;;;;8.20;5.40;;;;;;;;;;106810;1250;62064;-80
2023/08/05 12:04:49;;;;;;;5.40;4.80;;;;;;;;;;106778;1249;62034;-80
2023/08/05 12:07:16;;;;;;;7.10;5.10;;;;;;;;;;106829;1250;62238;-80
2023/08/05 12:09:42;;;;;;;6.80;5.30;;;;;;;;;;106715;1253;62030;-81
2023/08/05 12:12:18;;;;;;;5.90;5.30;;;;;;;;;;106777;1252;61950;-80
2023/08/05 12:14:45;;;;;;;6.40;5.40;;;;;;;;;;106728;1254;61987;-80
2023/08/05 12:17:11;;;;;;;5.80;5.20;;;;;;;;;;106822;1253;62040;-80
2023/08/05 12:19:41;;;;;;;6.70;5.60;;;;;;;;;;106722;1252;62175;-80
2023/08/05 12:22:07;;;;;;;9.00;6.20;;;;;;;;;;106786;1253;62157;-80
2023/08/05 12:24:34;;;;;;;6.30;5.50;;;;;;;;;;106747;1252;62163;-80
2023/08/05 12:27:00;;;;;;;6.90;5.60;;;;;;;;;;106773;1252;62167;-80
2023/08/05 12:29:26;;;;;;;8.80;6.40;;;;;;;;;;106743;1254;62096;-80
2023/08/05 12:31:53;;;;;;;9.80;6.10;;;;;;;;;;106785;1250;62149;-80
2023/08/05 12:34:19;;;;;;;9.30;7.00;;;;;;;;;;106715;1254;62149;-81
2023/08/05 12:36:45;;;;;;;9.90;7.50;;;;;;;;;;106802;1250;62195;-80
2023/08/05 12:39:12;;;;;;;7.70;6.20;;;;;;;;;;106720;1254;62037;-80
2023/08/05 12:41:38;;;;;;;9.50;7.20;;;;;;;;;;106788;1250;61978;-80
2023/08/05 12:44:04;;;;;;;14.10;6.80;;;;;;;;;;106771;1250;62005;-81
2023/08/05 12:46:31;;;;;;;8.60;5.50;;;;;;;;;;106755;1253;62182;-80
2023/08/05 12:48:57;;;;;;;6.90;6.20;;;;;;;;;;106798;1249;62186;-80
2023/08/05 12:51:23;;;;;;;6.90;6.30;;;;;;;;;;106808;1249;62553;-80
2023/08/05 12:53:50;;;;;;;6.50;5.90;;;;;;;;;;106796;1249;62138;-79
2023/08/05 12:56:16;;;;;;;6.80;6.20;;;;;;;;;;106765;1254;62135;-80
2023/08/05 12:58:42;;;;;;;12.50;8.40;;;;;;;;;;106796;1253;62144;-80
2023/08/05 13:01:09;;;;;;;8.30;6.90;;;;;;;;;;106763;1249;62173;-80
2023/08/05 13:03:35;;;;;;;7.40;6.70;;;;;;;;;;106752;1254;62142;-80
2023/08/05 13:06:02;;;;;;;8.00;7.10;;;;;;;;;;106784;1255;62123;-81
2023/08/05 13:08:28;;;;;;;6.80;6.10;;;;;;;;;;106775;1250;62076;-81
2023/08/05 13:10:55;;;;;;;8.60;7.00;;;;;;;;;;106709;1253;62141;-81
2023/08/05 13:13:21;;;;;;;10.40;7.00;;;;;;;;;;106815;1252;63160;-81
2023/08/05 13:15:48;;;;;;;8.50;7.00;;;;;;;;;;106759;1249;62112;-81
2023/08/05 13:18:14;;;;;;;58.30;33.90;;;;;;;;;;106806;1250;62186;-81
2023/08/05 13:20:41;;;;;;;19.70;16.30;;;;;;;;;;106849;1249;63018;-81
2023/08/05 13:23:07;;;;;;;16.90;12.20;;;;;;;;;;106787;1255;62144;-79
2023/08/05 13:25:34;;;;;;;16.60;13.10;;;;;;;;;;106832;1249;62022;-81
2023/08/05 13:28:00;;;;;;;12.70;9.60;;;;;;;;;;106790;1251;62116;-81
2023/08/05 13:30:27;;;;;;;10.70;7.60;;;;;;;;;;106774;1250;62071;-81
2023/08/05 13:32:53;;;;;;;8.80;7.10;;;;;;;;;;106751;1249;62068;-82
2023/08/05 13:35:19;;;;;;;10.80;7.30;;;;;;;;;;106810;1254;61930;-81
2023/08/05 13:37:46;;;;;;;7.90;7.10;;;;;;;;;;106772;1250;62777;-82
2023/08/05 13:40:12;;;;;;;8.40;7.40;;;;;;;;;;106892;1254;62140;-80
2023/08/05 13:42:38;;;;;;;8.50;7.20;;;;;;;;;;106790;1254;62145;-82
2023/08/05 13:45:05;;;;;;;8.00;7.20;;;;;;;;;;106773;1250;62079;-81
2023/08/05 13:47:31;;;;;;;7.80;7.00;;;;;;;;;;106804;1249;62149;-80
2023/08/05 13:49:58;;;;;;;8.80;7.70;;;;;;;;;;106832;1250;62054;-81
2023/08/05 13:52:24;;;;;;;8.90;7.90;;;;;;;;;;106806;1249;62212;-80
2023/08/05 13:54:51;;;;;;;12.00;8.30;;;;;;;;;;106834;1255;62145;-81
2023/08/05 13:57:17;;;;;;;9.50;8.50;;;;;;;;;;106771;1250;63230;-82
2023/08/05 13:59:43;;;;;;;9.80;7.80;;;;;;;;;;107009;1253;62067;-81
2023/08/05 14:02:10;;;;;;;11.00;9.20;;;;;;;;;;106830;1250;62155;-83
2023/08/05 14:04:37;;;;;;;11.30;9.40;;;;;;;;;;106735;1249;62142;-81
2023/08/05 14:07:03;;;;;;;11.00;9.30;;;;;;;;;;106770;1250;62145;-81
2023/08/05 14:09:30;;;;;;;14.90;10.80;;;;;;;;;;106815;1256;62134;-80
2023/08/05 14:11:56;;;;;;;30.10;27.10;;;;;;;;;;106776;1250;62057;-81
2023/08/05 14:14:22;;;;;;;30.50;27.70;;;;;;;;;;106939;1252;62138;-81
2023/08/05 14:16:49;;;;;;;19.50;17.50;;;;;;;;;;106927;1253;62034;-80
2023/08/05 14:19:15;;;;;;;12.10;10.70;;;;;;;;;;106728;1250;62253;-80
2023/08/05 14:21:41;;;;;;;11.30;10.20;;;;;;;;;;106761;1250;62240;-80
2023/08/05 14:24:09;;;;;;;13.80;10.20;;;;;;;;;;106827;1255;62409;-81